sensor_id;sensor_type;location;lat;lon;timestamp;pressure;altitude;pressure_sealevel;temperature;humidity
20009;BME280;10165;42.662;23.260;2022-09-29T00:00:36;93286.88;;;19.12;59.57
20009;BME280;10165;42.662;23.260;2022-09-29T00:03:04;93289.91;;;19.14;59.60
20009;BME280;10165;42.662;23.260;2022-09-29T00:05:31;93281.53;;;19.08;59.45
20009;BME280;10165;42.662;23.260;2022-09-29T00:07:58;93278.94;;;19.21;59.43
20009;BME280;10165;42.662;23.260;2022-09-29T00:10:24;93281.03;;;18.94;59.69
20009;BME280;10165;42.662;23.260;2022-09-29T00:12:51;93275.06;;;19.02;60.03
20009;BME280;10165;42.662;23.260;2022-09-29T00:15:18;93280.63;;;18.76;60.91
20009;BME280;10165;42.662;23.260;2022-09-29T00:17:44;93279.31;;;18.84;61.05
20009;BME280;10165;42.662;23.260;2022-09-29T00:20:31;93277.84;;;18.99;60.30
20009;BME280;10165;42.662;23.260;2022-09-29T00:22:58;93275.97;;;18.10;62.72
20009;BME280;10165;42.662;23.260;2022-09-29T00:25:25;93263.84;;;18.41;62.18
20009;BME280;10165;42.662;23.260;2022-09-29T00:27:52;93271.63;;;18.63;61.56
20009;BME280;10165;42.662;23.260;2022-09-29T00:30:18;93288.81;;;18.49;61.91
20009;BME280;10165;42.662;23.260;2022-09-29T00:32:45;93271.44;;;18.50;62.47
20009;BME280;10165;42.662;23.260;2022-09-29T00:35:12;93273.47;;;18.66;62.02
20009;BME280;10165;42.662;23.260;2022-09-29T00:37:38;93261.69;;;18.76;61.67
20009;BME280;10165;42.662;23.260;2022-09-29T00:40:06;93275.13;;;18.59;62.03
20009;BME280;10165;42.662;23.260;2022-09-29T00:42:33;93266.75;;;18.74;61.30
20009;BME280;10165;42.662;23.260;2022-09-29T00:45:19;93264.47;;;18.72;61.01
20009;BME280;10165;42.662;23.260;2022-09-29T00:48:02;93273.06;;;18.67;61.37
20009;BME280;10165;42.662;23.260;2022-09-29T00:50:50;93279.22;;;18.68;61.27
20009;BME280;10165;42.662;23.260;2022-09-29T00:53:19;93273.84;;;18.87;61.07
20009;BME280;10165;42.662;23.260;2022-09-29T00:56:01;93283.09;;;18.67;61.45
20009;BME280;10165;42.662;23.260;2022-09-29T01:00:58;93267.03;;;18.79;60.92
20009;BME280;10165;42.662;23.260;2022-09-29T01:03:29;93270.63;;;18.73;61.06
20009;BME280;10165;42.662;23.260;2022-09-29T01:05:59;93264.69;;;18.81;60.98
20009;BME280;10165;42.662;23.260;2022-09-29T01:08:38;93272.50;;;18.76;61.29
20009;BME280;10165;42.662;23.260;2022-09-29T01:11:09;93265.38;;;18.85;61.09
20009;BME280;10165;42.662;23.260;2022-09-29T01:13:37;93270.78;;;18.66;61.59
20009;BME280;10165;42.662;23.260;2022-09-29T01:16:04;93259.97;;;18.66;61.60
20009;BME280;10165;42.662;23.260;2022-09-29T01:18:31;93275.50;;;17.92;63.16
20009;BME280;10165;42.662;23.260;2022-09-29T01:26:48;93271.72;;;18.32;62.74
20009;BME280;10165;42.662;23.260;2022-09-29T01:37:22;93271.56;;;18.20;62.67
20009;BME280;10165;42.662;23.260;2022-09-29T01:45:27;93275.25;;;18.29;62.04
20009;BME280;10165;42.662;23.260;2022-09-29T01:47:58;93288.00;;;18.05;63.53
20009;BME280;10165;42.662;23.260;2022-09-29T01:50:34;93286.91;;;18.26;62.80
20009;BME280;10165;42.662;23.260;2022-09-29T01:53:08;93286.44;;;18.31;62.46
20009;BME280;10165;42.662;23.260;2022-09-29T01:55:42;93282.53;;;18.55;61.87
20009;BME280;10165;42.662;23.260;2022-09-29T01:58:18;93282.72;;;18.22;62.51
20009;BME280;10165;42.662;23.260;2022-09-29T02:00:51;93277.34;;;17.72;64.18
20009;BME280;10165;42.662;23.260;2022-09-29T02:03:31;93278.09;;;17.99;63.67
20009;BME280;10165;42.662;23.260;2022-09-29T02:06:03;93285.97;;;17.90;64.44
20009;BME280;10165;42.662;23.260;2022-09-29T02:08:40;93277.16;;;18.09;63.70
20009;BME280;10165;42.662;23.260;2022-09-29T02:11:11;93276.69;;;18.14;63.15
20009;BME280;10165;42.662;23.260;2022-09-29T02:16:27;93276.34;;;18.12;63.31
20009;BME280;10165;42.662;23.260;2022-09-29T02:19:24;93285.84;;;18.20;63.31
20009;BME280;10165;42.662;23.260;2022-09-29T02:21:48;93291.47;;;18.06;63.56
20009;BME280;10165;42.662;23.260;2022-09-29T02:24:17;93291.91;;;18.28;63.56
20009;BME280;10165;42.662;23.260;2022-09-29T02:26:44;93289.00;;;18.38;63.07
20009;BME280;10165;42.662;23.260;2022-09-29T02:29:11;93289.28;;;18.44;63.11
20009;BME280;10165;42.662;23.260;2022-09-29T02:31:39;93295.38;;;18.28;62.94
20009;BME280;10165;42.662;23.260;2022-09-29T02:34:08;93292.69;;;18.28;63.48
20009;BME280;10165;42.662;23.260;2022-09-29T02:36:46;93287.28;;;18.28;63.24
20009;BME280;10165;42.662;23.260;2022-09-29T02:39:43;93291.06;;;18.31;63.24
20009;BME280;10165;42.662;23.260;2022-09-29T02:59:07;93279.78;;;17.36;65.96
20009;BME280;10165;42.662;23.260;2022-09-29T03:01:45;93257.97;;;16.62;68.05
20009;BME280;10165;42.662;23.260;2022-09-29T03:04:13;93237.09;;;17.00;66.73
20009;BME280;10165;42.662;23.260;2022-09-29T03:06:40;93236.50;;;17.16;66.57
20009;BME280;10165;42.662;23.260;2022-09-29T03:09:06;93249.88;;;17.23;66.55
20009;BME280;10165;42.662;23.260;2022-09-29T03:11:33;93231.75;;;17.77;64.40
20009;BME280;10165;42.662;23.260;2022-09-29T03:14:00;93242.78;;;18.09;63.24
20009;BME280;10165;42.662;23.260;2022-09-29T03:16:27;93247.19;;;17.23;63.87
20009;BME280;10165;42.662;23.260;2022-09-29T03:18:53;93251.88;;;17.73;62.25
20009;BME280;10165;42.662;23.260;2022-09-29T03:21:22;93257.16;;;17.80;62.43
20009;BME280;10165;42.662;23.260;2022-09-29T03:23:49;93284.44;;;18.12;62.46
20009;BME280;10165;42.662;23.260;2022-09-29T03:26:22;93281.88;;;18.28;61.60
20009;BME280;10165;42.662;23.260;2022-09-29T03:28:50;93289.34;;;17.94;62.94
20009;BME280;10165;42.662;23.260;2022-09-29T03:31:17;93299.66;;;17.49;64.73
20009;BME280;10165;42.662;23.260;2022-09-29T03:33:44;93302.88;;;17.94;63.42
20009;BME280;10165;42.662;23.260;2022-09-29T03:36:11;93309.16;;;18.10;62.96
20009;BME280;10165;42.662;23.260;2022-09-29T03:38:38;93330.59;;;17.71;64.40
20009;BME280;10165;42.662;23.260;2022-09-29T03:41:06;93328.50;;;17.25;66.13
20009;BME280;10165;42.662;23.260;2022-09-29T03:43:32;93324.78;;;16.82;68.55
20009;BME280;10165;42.662;23.260;2022-09-29T03:45:59;93323.75;;;17.02;67.97
20009;BME280;10165;42.662;23.260;2022-09-29T03:48:26;93320.91;;;17.16;67.32
20009;BME280;10165;42.662;23.260;2022-09-29T03:50:56;93326.44;;;17.66;65.83
20009;BME280;10165;42.662;23.260;2022-09-29T03:53:23;93322.97;;;17.93;64.74
20009;BME280;10165;42.662;23.260;2022-09-29T03:55:50;93311.59;;;18.05;64.22
20009;BME280;10165;42.662;23.260;2022-09-29T03:58:17;93305.25;;;18.15;63.52
20009;BME280;10165;42.662;23.260;2022-09-29T04:00:46;93311.16;;;18.06;63.70
20009;BME280;10165;42.662;23.260;2022-09-29T04:03:13;93314.63;;;18.07;63.95
20009;BME280;10165;42.662;23.260;2022-09-29T04:05:39;93312.72;;;17.81;64.56
20009;BME280;10165;42.662;23.260;2022-09-29T04:08:07;93305.03;;;17.79;64.76
20009;BME280;10165;42.662;23.260;2022-09-29T04:10:37;93314.88;;;17.93;63.98
20009;BME280;10165;42.662;23.260;2022-09-29T04:13:05;93304.34;;;17.98;63.84
20009;BME280;10165;42.662;23.260;2022-09-29T04:15:33;93298.97;;;17.72;64.90
20009;BME280;10165;42.662;23.260;2022-09-29T04:18:00;93300.53;;;17.96;64.04
20009;BME280;10165;42.662;23.260;2022-09-29T04:20:27;93303.03;;;17.83;64.40
20009;BME280;10165;42.662;23.260;2022-09-29T04:22:54;93304.41;;;17.95;63.99
20009;BME280;10165;42.662;23.260;2022-09-29T04:25:21;93300.94;;;17.94;63.61
20009;BME280;10165;42.662;23.260;2022-09-29T04:27:47;93295.31;;;17.58;64.94
20009;BME280;10165;42.662;23.260;2022-09-29T04:30:14;93295.41;;;17.78;64.37
20009;BME280;10165;42.662;23.260;2022-09-29T04:32:41;93297.88;;;17.39;65.55
20009;BME280;10165;42.662;23.260;2022-09-29T04:35:08;93299.91;;;17.01;67.06
20009;BME280;10165;42.662;23.260;2022-09-29T04:37:35;93302.31;;;17.22;66.82
20009;BME280;10165;42.662;23.260;2022-09-29T04:40:03;93298.06;;;16.91;67.30
20009;BME280;10165;42.662;23.260;2022-09-29T04:42:30;93300.72;;;16.98;67.53
20009;BME280;10165;42.662;23.260;2022-09-29T04:44:57;93293.63;;;17.38;66.25
20009;BME280;10165;42.662;23.260;2022-09-29T04:47:23;93298.69;;;17.05;67.20
20009;BME280;10165;42.662;23.260;2022-09-29T04:49:50;93300.19;;;17.37;66.60
20009;BME280;10165;42.662;23.260;2022-09-29T04:52:16;93286.91;;;17.49;65.85
20009;BME280;10165;42.662;23.260;2022-09-29T04:54:43;93287.56;;;17.60;65.22
20009;BME280;10165;42.662;23.260;2022-09-29T04:57:11;93283.47;;;17.76;64.97
20009;BME280;10165;42.662;23.260;2022-09-29T04:59:38;93290.28;;;17.84;64.56
20009;BME280;10165;42.662;23.260;2022-09-29T05:02:04;93284.00;;;17.90;64.35
20009;BME280;10165;42.662;23.260;2022-09-29T05:04:31;93290.44;;;18.00;63.79
20009;BME280;10165;42.662;23.260;2022-09-29T05:06:57;93290.78;;;18.02;63.78
20009;BME280;10165;42.662;23.260;2022-09-29T05:09:24;93292.44;;;17.96;63.85
20009;BME280;10165;42.662;23.260;2022-09-29T05:11:56;93299.16;;;17.84;64.33
20009;BME280;10165;42.662;23.260;2022-09-29T05:14:23;93306.66;;;17.73;64.69
20009;BME280;10165;42.662;23.260;2022-09-29T05:16:49;93305.19;;;17.68;65.18
20009;BME280;10165;42.662;23.260;2022-09-29T05:19:16;93305.19;;;17.68;64.84
20009;BME280;10165;42.662;23.260;2022-09-29T05:21:43;93292.09;;;16.76;69.04
20009;BME280;10165;42.662;23.260;2022-09-29T05:24:09;93308.03;;;17.28;67.09
20009;BME280;10165;42.662;23.260;2022-09-29T05:26:36;93309.81;;;17.68;65.61
20009;BME280;10165;42.662;23.260;2022-09-29T05:29:03;93299.34;;;17.74;65.51
20009;BME280;10165;42.662;23.260;2022-09-29T05:31:29;93295.44;;;17.75;65.69
20009;BME280;10165;42.662;23.260;2022-09-29T05:33:56;93308.00;;;17.31;67.43
20009;BME280;10165;42.662;23.260;2022-09-29T05:36:23;93312.13;;;17.09;67.96
20009;BME280;10165;42.662;23.260;2022-09-29T05:38:50;93312.34;;;17.21;68.29
20009;BME280;10165;42.662;23.260;2022-09-29T05:41:17;93327.13;;;17.44;67.31
20009;BME280;10165;42.662;23.260;2022-09-29T05:43:49;93332.13;;;17.72;66.44
20009;BME280;10165;42.662;23.260;2022-09-29T05:46:16;93329.19;;;17.90;65.95
20009;BME280;10165;42.662;23.260;2022-09-29T05:48:48;93338.56;;;18.08;64.97
20009;BME280;10165;42.662;23.260;2022-09-29T05:51:19;93334.28;;;18.34;64.15
20009;BME280;10165;42.662;23.260;2022-09-29T05:53:49;93319.47;;;18.42;63.24
20009;BME280;10165;42.662;23.260;2022-09-29T05:56:24;93333.13;;;18.58;63.11
20009;BME280;10165;42.662;23.260;2022-09-29T05:58:52;93324.72;;;18.53;63.59
20009;BME280;10165;42.662;23.260;2022-09-29T06:01:24;93330.75;;;18.60;63.24
20009;BME280;10165;42.662;23.260;2022-09-29T06:03:55;93342.44;;;18.77;62.96
20009;BME280;10165;42.662;23.260;2022-09-29T06:06:26;93349.06;;;18.03;64.03
20009;BME280;10165;42.662;23.260;2022-09-29T06:08:54;93345.75;;;17.92;65.41
20009;BME280;10165;42.662;23.260;2022-09-29T06:11:26;93338.13;;;18.10;64.60
20009;BME280;10165;42.662;23.260;2022-09-29T06:13:54;93344.03;;;18.51;63.27
20009;BME280;10165;42.662;23.260;2022-09-29T06:16:31;93340.94;;;18.53;63.31
20009;BME280;10165;42.662;23.260;2022-09-29T06:18:59;93325.47;;;18.53;62.86
20009;BME280;10165;42.662;23.260;2022-09-29T06:21:27;93325.84;;;18.29;64.23
20009;BME280;10165;42.662;23.260;2022-09-29T06:23:55;93330.72;;;18.84;63.00
20009;BME280;10165;42.662;23.260;2022-09-29T06:26:23;93333.75;;;18.86;61.74
20009;BME280;10165;42.662;23.260;2022-09-29T06:28:51;93346.91;;;19.07;61.98
20009;BME280;10165;42.662;23.260;2022-09-29T06:31:20;93337.44;;;18.76;62.46
20009;BME280;10165;42.662;23.260;2022-09-29T06:33:47;93340.03;;;19.22;60.99
20009;BME280;10165;42.662;23.260;2022-09-29T06:38:59;93341.16;;;19.44;59.19
20009;BME280;10165;42.662;23.260;2022-09-29T06:41:26;93346.91;;;19.66;58.95
20009;BME280;10165;42.662;23.260;2022-09-29T06:43:55;93340.88;;;19.39;59.66
20009;BME280;10165;42.662;23.260;2022-09-29T06:46:22;93341.69;;;19.55;59.05
20009;BME280;10165;42.662;23.260;2022-09-29T06:48:49;93347.47;;;19.58;59.29
20009;BME280;10165;42.662;23.260;2022-09-29T06:51:16;93350.00;;;19.84;58.86
20009;BME280;10165;42.662;23.260;2022-09-29T06:53:42;93352.78;;;19.81;58.25
20009;BME280;10165;42.662;23.260;2022-09-29T06:56:10;93364.94;;;19.73;59.40
20009;BME280;10165;42.662;23.260;2022-09-29T06:58:36;93367.28;;;20.07;57.10
20009;BME280;10165;42.662;23.260;2022-09-29T07:01:03;93368.34;;;19.37;59.24
20009;BME280;10165;42.662;23.260;2022-09-29T07:03:32;93374.81;;;19.99;58.07
20009;BME280;10165;42.662;23.260;2022-09-29T07:06:07;93381.69;;;19.68;58.09
20009;BME280;10165;42.662;23.260;2022-09-29T07:08:45;93385.44;;;20.10;56.90
20009;BME280;10165;42.662;23.260;2022-09-29T07:11:12;93379.81;;;20.36;56.69
20009;BME280;10165;42.662;23.260;2022-09-29T07:13:38;93366.41;;;20.29;56.88
20009;BME280;10165;42.662;23.260;2022-09-29T07:16:09;93371.34;;;20.50;55.92
20009;BME280;10165;42.662;23.260;2022-09-29T07:18:39;93365.00;;;19.89;58.13
20009;BME280;10165;42.662;23.260;2022-09-29T07:21:11;93368.09;;;20.39;56.12
20009;BME280;10165;42.662;23.260;2022-09-29T07:23:38;93358.66;;;20.28;56.93
20009;BME280;10165;42.662;23.260;2022-09-29T07:26:05;93365.00;;;20.21;56.55
20009;BME280;10165;42.662;23.260;2022-09-29T07:28:32;93354.34;;;20.14;57.08
20009;BME280;10165;42.662;23.260;2022-09-29T07:31:00;93362.56;;;20.27;56.80
20009;BME280;10165;42.662;23.260;2022-09-29T07:33:39;93364.84;;;19.96;57.41
20009;BME280;10165;42.662;23.260;2022-09-29T07:36:07;93357.56;;;19.93;58.55
20009;BME280;10165;42.662;23.260;2022-09-29T07:38:33;93362.66;;;20.39;56.91
20009;BME280;10165;42.662;23.260;2022-09-29T07:41:02;93358.72;;;19.92;57.50
20009;BME280;10165;42.662;23.260;2022-09-29T07:43:30;93353.25;;;20.76;56.75
20009;BME280;10165;42.662;23.260;2022-09-29T07:45:56;93371.66;;;20.85;55.46
20009;BME280;10165;42.662;23.260;2022-09-29T07:48:26;93367.28;;;21.04;54.65
20009;BME280;10165;42.662;23.260;2022-09-29T07:51:15;93375.50;;;21.00;55.30
20009;BME280;10165;42.662;23.260;2022-09-29T07:53:43;93372.25;;;20.60;55.29
20009;BME280;10165;42.662;23.260;2022-09-29T07:56:18;93385.22;;;20.52;55.23
20009;BME280;10165;42.662;23.260;2022-09-29T07:58:46;93391.47;;;20.82;55.00
20009;BME280;10165;42.662;23.260;2022-09-29T08:01:16;93390.66;;;20.85;54.55
20009;BME280;10165;42.662;23.260;2022-09-29T08:03:48;93396.53;;;21.12;56.09
20009;BME280;10165;42.662;23.260;2022-09-29T08:06:15;93394.81;;;21.34;55.38
20009;BME280;10165;42.662;23.260;2022-09-29T08:08:42;93404.69;;;21.12;55.00
20009;BME280;10165;42.662;23.260;2022-09-29T08:11:25;93413.91;;;20.54;56.00
20009;BME280;10165;42.662;23.260;2022-09-29T08:13:57;93409.75;;;20.65;55.03
20009;BME280;10165;42.662;23.260;2022-09-29T08:16:24;93426.59;;;20.89;55.39
20009;BME280;10165;42.662;23.260;2022-09-29T08:18:51;93419.38;;;20.98;54.71
20009;BME280;10165;42.662;23.260;2022-09-29T08:21:18;93406.41;;;20.90;55.48
20009;BME280;10165;42.662;23.260;2022-09-29T08:23:44;93417.72;;;21.33;53.33
20009;BME280;10165;42.662;23.260;2022-09-29T08:26:13;93413.00;;;21.05;54.35
20009;BME280;10165;42.662;23.260;2022-09-29T08:28:42;93406.88;;;21.17;53.89
20009;BME280;10165;42.662;23.260;2022-09-29T08:33:40;93416.97;;;21.74;52.08
20009;BME280;10165;42.662;23.260;2022-09-29T08:36:07;93402.09;;;21.79;52.65
20009;BME280;10165;42.662;23.260;2022-09-29T08:38:41;93408.50;;;21.85;52.11
20009;BME280;10165;42.662;23.260;2022-09-29T08:43:48;93400.28;;;22.01;51.46
20009;BME280;10165;42.662;23.260;2022-09-29T08:46:24;93404.78;;;21.66;52.53
20009;BME280;10165;42.662;23.260;2022-09-29T08:49:05;93400.50;;;22.19;51.35
20009;BME280;10165;42.662;23.260;2022-09-29T08:51:44;93387.47;;;22.27;51.22
20009;BME280;10165;42.662;23.260;2022-09-29T08:54:19;93401.47;;;22.00;53.02
20009;BME280;10165;42.662;23.260;2022-09-29T08:57:00;93395.19;;;22.28;51.21
20009;BME280;10165;42.662;23.260;2022-09-29T08:59:28;93401.06;;;22.52;49.97
20009;BME280;10165;42.662;23.260;2022-09-29T09:07:49;93386.13;;;22.82;43.67
20009;BME280;10165;42.662;23.260;2022-09-29T09:20:58;93395.09;;;23.04;42.92
20009;BME280;10165;42.662;23.260;2022-09-29T09:23:45;93391.53;;;23.07;42.63
20009;BME280;10165;42.662;23.260;2022-09-29T09:26:15;93396.09;;;23.45;42.10
20009;BME280;10165;42.662;23.260;2022-09-29T09:28:48;93388.41;;;23.52;42.10
20009;BME280;10165;42.662;23.260;2022-09-29T09:37:00;93384.59;;;23.50;41.59
20009;BME280;10165;42.662;23.260;2022-09-29T09:39:36;93386.44;;;24.27;40.18
20009;BME280;10165;42.662;23.260;2022-09-29T09:42:12;93386.19;;;23.60;40.80
20009;BME280;10165;42.662;23.260;2022-09-29T09:44:48;93394.31;;;23.51;42.21
20009;BME280;10165;42.662;23.260;2022-09-29T09:47:24;93402.59;;;23.69;40.11
20009;BME280;10165;42.662;23.260;2022-09-29T09:49:58;93396.72;;;23.49;41.41
20009;BME280;10165;42.662;23.260;2022-09-29T09:54:58;93376.03;;;23.82;40.20
20009;BME280;10165;42.662;23.260;2022-09-29T10:00:15;93379.91;;;23.50;40.95
20009;BME280;10165;42.662;23.260;2022-09-29T10:02:49;93369.84;;;23.60;41.00
20009;BME280;10165;42.662;23.260;2022-09-29T10:05:19;93375.41;;;23.56;40.76
20009;BME280;10165;42.662;23.260;2022-09-29T10:07:46;93377.66;;;23.49;40.96
20009;BME280;10165;42.662;23.260;2022-09-29T10:10:24;93368.13;;;23.53;41.17
20009;BME280;10165;42.662;23.260;2022-09-29T10:13:02;93368.13;;;23.75;40.74
20009;BME280;10165;42.662;23.260;2022-09-29T10:15:36;93356.38;;;23.96;40.13
20009;BME280;10165;42.662;23.260;2022-09-29T10:18:16;93364.56;;;23.65;42.07
20009;BME280;10165;42.662;23.260;2022-09-29T10:20:45;93366.53;;;23.96;40.11
20009;BME280;10165;42.662;23.260;2022-09-29T10:28:39;93400.78;;;23.66;41.00
20009;BME280;10165;42.662;23.260;2022-09-29T10:34:02;93400.06;;;24.27;38.85
20009;BME280;10165;42.662;23.260;2022-09-29T10:42:38;93403.22;;;25.14;38.13
20009;BME280;10165;42.662;23.260;2022-09-29T10:50:30;93385.84;;;24.81;38.09
20009;BME280;10165;42.662;23.260;2022-09-29T10:53:20;93383.41;;;24.74;38.59
20009;BME280;10165;42.662;23.260;2022-09-29T10:55:54;93383.94;;;24.91;38.67
20009;BME280;10165;42.662;23.260;2022-09-29T10:58:28;93392.50;;;24.80;39.18
20009;BME280;10165;42.662;23.260;2022-09-29T11:01:17;93385.75;;;24.45;37.33
20009;BME280;10165;42.662;23.260;2022-09-29T11:03:55;93388.72;;;24.77;37.52
20009;BME280;10165;42.662;23.260;2022-09-29T11:06:37;93383.84;;;24.72;36.81
20009;BME280;10165;42.662;23.260;2022-09-29T11:11:51;93370.41;;;24.96;37.00
20009;BME280;10165;42.662;23.260;2022-09-29T11:14:31;93374.25;;;25.17;36.94
20009;BME280;10165;42.662;23.260;2022-09-29T11:19:50;93365.59;;;25.09;36.13
20009;BME280;10165;42.662;23.260;2022-09-29T11:39:33;93373.03;;;25.18;37.22
20009;BME280;10165;42.662;23.260;2022-09-29T11:44:58;93372.25;;;24.90;38.09
20009;BME280;10165;42.662;23.260;2022-09-29T12:17:58;93377.25;;;25.19;38.04
20009;BME280;10165;42.662;23.260;2022-09-29T12:20:31;93362.22;;;25.42;37.17
20009;BME280;10165;42.662;23.260;2022-09-29T12:23:02;93364.06;;;25.36;36.47
20009;BME280;10165;42.662;23.260;2022-09-29T12:25:34;93367.25;;;25.16;37.70
20009;BME280;10165;42.662;23.260;2022-09-29T12:28:13;93379.81;;;24.95;37.05
20009;BME280;10165;42.662;23.260;2022-09-29T12:31:19;93368.31;;;25.28;37.96
20009;BME280;10165;42.662;23.260;2022-09-29T12:33:55;93379.84;;;25.13;37.08
20009;BME280;10165;42.662;23.260;2022-09-29T12:41:47;93383.78;;;25.03;37.17
20009;BME280;10165;42.662;23.260;2022-09-29T12:44:39;93376.22;;;25.44;35.76
20009;BME280;10165;42.662;23.260;2022-09-29T12:53:04;93370.81;;;24.76;37.64
20009;BME280;10165;42.662;23.260;2022-09-29T12:58:26;93372.84;;;25.03;37.70
20009;BME280;10165;42.662;23.260;2022-09-29T13:01:02;93375.47;;;25.25;36.64
20009;BME280;10165;42.662;23.260;2022-09-29T13:09:14;93375.31;;;25.10;36.88
20009;BME280;10165;42.662;23.260;2022-09-29T13:17:02;93381.53;;;24.62;37.93
20009;BME280;10165;42.662;23.260;2022-09-29T13:19:51;93382.56;;;24.95;38.16
20009;BME280;10165;42.662;23.260;2022-09-29T13:22:59;93370.44;;;25.33;37.89
20009;BME280;10165;42.662;23.260;2022-09-29T13:28:00;93369.06;;;25.10;37.50
20009;BME280;10165;42.662;23.260;2022-09-29T13:30:29;93372.88;;;25.21;37.51
20009;BME280;10165;42.662;23.260;2022-09-29T13:33:08;93371.81;;;25.37;37.34
20009;BME280;10165;42.662;23.260;2022-09-29T13:35:41;93380.31;;;25.21;36.96
20009;BME280;10165;42.662;23.260;2022-09-29T13:38:18;93377.28;;;25.28;37.79
20009;BME280;10165;42.662;23.260;2022-09-29T13:41:13;93381.81;;;25.04;37.91
20009;BME280;10165;42.662;23.260;2022-09-29T13:54:22;93395.44;;;24.37;39.68
20009;BME280;10165;42.662;23.260;2022-09-29T13:56:51;93386.66;;;24.11;40.96
20009;BME280;10165;42.662;23.260;2022-09-29T13:59:24;93390.00;;;24.15;41.36
20009;BME280;10165;42.662;23.260;2022-09-29T14:01:52;93394.84;;;23.89;41.26
20009;BME280;10165;42.662;23.260;2022-09-29T14:07:05;93396.56;;;23.96;41.42
20009;BME280;10165;42.662;23.260;2022-09-29T14:09:37;93397.09;;;23.60;42.25
20009;BME280;10165;42.662;23.260;2022-09-29T14:12:17;93402.00;;;23.65;42.18
20009;BME280;10165;42.662;23.260;2022-09-29T14:14:52;93407.19;;;23.72;42.25
20009;BME280;10165;42.662;23.260;2022-09-29T14:17:23;93401.75;;;23.72;41.73
20009;BME280;10165;42.662;23.260;2022-09-29T14:27:39;93429.81;;;23.25;42.10
20009;BME280;10165;42.662;23.260;2022-09-29T14:30:19;93433.38;;;23.91;41.76
20009;BME280;10165;42.662;23.260;2022-09-29T14:32:54;93450.03;;;24.15;41.69
20009;BME280;10165;42.662;23.260;2022-09-29T14:40:30;93478.63;;;23.32;51.35
20009;BME280;10165;42.662;23.260;2022-09-29T14:43:17;93487.00;;;22.91;53.18
20009;BME280;10165;42.662;23.260;2022-09-29T14:45:59;93481.88;;;22.80;54.95
20009;BME280;10165;42.662;23.260;2022-09-29T15:04:45;93473.19;;;21.04;66.36
20009;BME280;10165;42.662;23.260;2022-09-29T15:07:17;93470.66;;;21.58;65.55
20009;BME280;10165;42.662;23.260;2022-09-29T15:09:55;93483.72;;;21.91;63.38
20009;BME280;10165;42.662;23.260;2022-09-29T15:12:26;93479.50;;;22.03;63.18
20009;BME280;10165;42.662;23.260;2022-09-29T15:14:54;93475.53;;;22.33;62.01
20009;BME280;10165;42.662;23.260;2022-09-29T15:20:22;93479.09;;;22.17;62.41
20009;BME280;10165;42.662;23.260;2022-09-29T15:25:36;93482.53;;;22.05;63.91
20009;BME280;10165;42.662;23.260;2022-09-29T15:28:31;93479.63;;;22.12;63.17
20009;BME280;10165;42.662;23.260;2022-09-29T15:31:02;93483.66;;;22.20;63.12
20009;BME280;10165;42.662;23.260;2022-09-29T15:33:38;93492.81;;;22.14;63.54
20009;BME280;10165;42.662;23.260;2022-09-29T15:36:32;93501.63;;;21.89;64.38
20009;BME280;10165;42.662;23.260;2022-09-29T15:39:06;93504.44;;;21.85;64.64
20009;BME280;10165;42.662;23.260;2022-09-29T15:41:34;93515.53;;;21.62;63.65
20009;BME280;10165;42.662;23.260;2022-09-29T15:44:13;93506.19;;;21.18;66.31
20009;BME280;10165;42.662;23.260;2022-09-29T15:46:50;93505.16;;;21.12;67.74
20009;BME280;10165;42.662;23.260;2022-09-29T15:49:19;93496.28;;;21.12;66.98
20009;BME280;10165;42.662;23.260;2022-09-29T15:54:34;93505.41;;;21.34;66.79
20009;BME280;10165;42.662;23.260;2022-09-29T15:57:06;93514.34;;;21.34;67.24
20009;BME280;10165;42.662;23.260;2022-09-29T15:59:54;93515.94;;;20.99;67.38
20009;BME280;10165;42.662;23.260;2022-09-29T16:02:40;93511.63;;;21.34;66.65
20009;BME280;10165;42.662;23.260;2022-09-29T16:05:13;93514.16;;;21.25;66.46
20009;BME280;10165;42.662;23.260;2022-09-29T16:07:55;93515.78;;;21.23;64.77
20009;BME280;10165;42.662;23.260;2022-09-29T16:10:29;93520.97;;;21.33;64.59
20009;BME280;10165;42.662;23.260;2022-09-29T16:12:59;93526.50;;;21.59;63.07
20009;BME280;10165;42.662;23.260;2022-09-29T16:15:42;93525.63;;;21.33;63.55
20009;BME280;10165;42.662;23.260;2022-09-29T16:20:44;93549.28;;;20.84;66.99
20009;BME280;10165;42.662;23.260;2022-09-29T16:23:26;93545.88;;;20.24;69.25
20009;BME280;10165;42.662;23.260;2022-09-29T16:26:08;93553.72;;;20.58;69.17
20009;BME280;10165;42.662;23.260;2022-09-29T16:28:58;93576.75;;;20.70;68.67
20009;BME280;10165;42.662;23.260;2022-09-29T16:31:28;93586.72;;;20.57;67.78
20009;BME280;10165;42.662;23.260;2022-09-29T16:33:59;93614.94;;;20.39;69.24
20009;BME280;10165;42.662;23.260;2022-09-29T16:36:33;93625.38;;;19.78;71.75
20009;BME280;10165;42.662;23.260;2022-09-29T16:39:05;93629.78;;;19.92;71.47
20009;BME280;10165;42.662;23.260;2022-09-29T16:41:36;93628.78;;;20.25;70.35
20009;BME280;10165;42.662;23.260;2022-09-29T16:51:55;93656.91;;;20.55;67.80
20009;BME280;10165;42.662;23.260;2022-09-29T16:54:26;93647.66;;;20.52;68.48
20009;BME280;10165;42.662;23.260;2022-09-29T16:57:26;93650.75;;;20.11;70.14
20009;BME280;10165;42.662;23.260;2022-09-29T17:00:01;93661.59;;;20.11;70.72
20009;BME280;10165;42.662;23.260;2022-09-29T17:02:32;93657.81;;;20.05;71.91
20009;BME280;10165;42.662;23.260;2022-09-29T17:04:58;93659.06;;;20.20;71.10
20009;BME280;10165;42.662;23.260;2022-09-29T17:07:27;93648.50;;;20.29;70.85
20009;BME280;10165;42.662;23.260;2022-09-29T17:09:56;93640.59;;;20.15;70.94
20009;BME280;10165;42.662;23.260;2022-09-29T17:12:25;93645.41;;;19.84;73.33
20009;BME280;10165;42.662;23.260;2022-09-29T17:14:52;93640.13;;;19.97;73.33